Beaworthy, United Kingdom
Current Conditions -  °F | °C
As of 5:50 PM on Saturday 25 Oct 2014 (Local Time) from EGTE Reporting Station
Broken Clouds Broken Clouds  
Wind Chill: 57°   Ceiling: 4000
Heat Index: 57°   Visibility: 6mi
Dew Point: 46°   Wind: 9mph
Humidity: 67%   Direction: 230°SW
Pressure: 30.12"   Gusts: NA
Location:  50.78°N, 4.19°W
Report Text: EGTE 251650Z 23008KT 9999 BKN040 14/08 Q1020
Loading
Personal Weather Stations






























Interactive Weather Map
Tropical Storm Tracking
New forecast layout! Learn more

10-Day Weather Forecast

Advertisements
Track Severe Weather on mobile